sensor_id;sensor_type;location;lat;lon;timestamp;temperature;humidity
3190;DHT22;1606;51.946;10.558;2024-02-21T00:02:22;11.80;99.90
3190;DHT22;1606;51.946;10.558;2024-02-21T00:04:50;11.90;99.90
3190;DHT22;1606;51.946;10.558;2024-02-21T00:07:18;11.80;99.90
3190;DHT22;1606;51.946;10.558;2024-02-21T00:09:46;11.70;99.90
3190;DHT22;1606;51.946;10.558;2024-02-21T00:12:14;11.70;99.90
3190;DHT22;1606;51.946;10.558;2024-02-21T00:14:45;11.70;99.90
3190;DHT22;1606;51.946;10.558;2024-02-21T00:17:12;11.50;99.90
3190;DHT22;1606;51.946;10.558;2024-02-21T00:19:40;11.40;99.90
3190;DHT22;1606;51.946;10.558;2024-02-21T00:22:08;11.50;99.90
3190;DHT22;1606;51.946;10.558;2024-02-21T00:24:37;11.50;99.90
3190;DHT22;1606;51.946;10.558;2024-02-21T00:27:05;11.40;99.90
3190;DHT22;1606;51.946;10.558;2024-02-21T00:29:33;11.40;99.90
3190;DHT22;1606;51.946;10.558;2024-02-21T00:32:03;11.20;99.90
3190;DHT22;1606;51.946;10.558;2024-02-21T00:34:31;11.10;99.90
3190;DHT22;1606;51.946;10.558;2024-02-21T00:36:59;11.00;99.90
3190;DHT22;1606;51.946;10.558;2024-02-21T00:39:26;10.90;99.90
3190;DHT22;1606;51.946;10.558;2024-02-21T00:41:54;11.10;99.90
3190;DHT22;1606;51.946;10.558;2024-02-21T00:44:22;11.00;99.90
3190;DHT22;1606;51.946;10.558;2024-02-21T00:46:50;11.30;99.90
3190;DHT22;1606;51.946;10.558;2024-02-21T00:49:20;11.20;99.90
3190;DHT22;1606;51.946;10.558;2024-02-21T00:51:48;10.90;99.90
3190;DHT22;1606;51.946;10.558;2024-02-21T00:54:16;10.80;99.90
3190;DHT22;1606;51.946;10.558;2024-02-21T00:56:44;10.80;99.90
3190;DHT22;1606;51.946;10.558;2024-02-21T00:59:12;10.60;99.90
3190;DHT22;1606;51.946;10.558;2024-02-21T01:01:40;10.80;99.90
3190;DHT22;1606;51.946;10.558;2024-02-21T01:04:09;10.90;99.90
3190;DHT22;1606;51.946;10.558;2024-02-21T01:06:39;11.00;99.90
3190;DHT22;1606;51.946;10.558;2024-02-21T01:09:09;11.00;99.90
3190;DHT22;1606;51.946;10.558;2024-02-21T01:11:37;11.00;99.90
3190;DHT22;1606;51.946;10.558;2024-02-21T01:14:05;11.00;99.90
3190;DHT22;1606;51.946;10.558;2024-02-21T01:16:33;11.10;99.90
3190;DHT22;1606;51.946;10.558;2024-02-21T01:19:00;11.00;99.90
3190;DHT22;1606;51.946;10.558;2024-02-21T01:21:28;10.80;99.90
3190;DHT22;1606;51.946;10.558;2024-02-21T01:23:58;10.90;99.90
3190;DHT22;1606;51.946;10.558;2024-02-21T01:26:26;11.00;99.90
3190;DHT22;1606;51.946;10.558;2024-02-21T01:28:54;11.00;99.90
3190;DHT22;1606;51.946;10.558;2024-02-21T01:31:22;10.90;99.90
3190;DHT22;1606;51.946;10.558;2024-02-21T01:33:49;10.90;99.90
3190;DHT22;1606;51.946;10.558;2024-02-21T01:36:17;10.90;99.90
3190;DHT22;1606;51.946;10.558;2024-02-21T01:38:45;10.70;99.90
3190;DHT22;1606;51.946;10.558;2024-02-21T01:41:14;10.90;99.90
3190;DHT22;1606;51.946;10.558;2024-02-21T01:43:43;10.80;99.90
3190;DHT22;1606;51.946;10.558;2024-02-21T01:46:11;10.70;99.90
3190;DHT22;1606;51.946;10.558;2024-02-21T01:48:39;10.70;99.90
3190;DHT22;1606;51.946;10.558;2024-02-21T01:51:07;10.50;99.90
3190;DHT22;1606;51.946;10.558;2024-02-21T01:53:37;10.60;99.90
3190;DHT22;1606;51.946;10.558;2024-02-21T01:56:08;10.60;99.90
3190;DHT22;1606;51.946;10.558;2024-02-21T01:58:40;10.70;99.90
3190;DHT22;1606;51.946;10.558;2024-02-21T02:01:09;10.80;99.90
3190;DHT22;1606;51.946;10.558;2024-02-21T02:03:38;10.80;99.90
3190;DHT22;1606;51.946;10.558;2024-02-21T02:06:06;10.90;99.90
3190;DHT22;1606;51.946;10.558;2024-02-21T02:08:34;10.80;99.90
3190;DHT22;1606;51.946;10.558;2024-02-21T02:11:02;10.70;99.90
3190;DHT22;1606;51.946;10.558;2024-02-21T02:13:30;10.70;99.90
3190;DHT22;1606;51.946;10.558;2024-02-21T02:15:59;10.60;99.90
3190;DHT22;1606;51.946;10.558;2024-02-21T02:18:27;10.60;99.90
3190;DHT22;1606;51.946;10.558;2024-02-21T02:20:57;10.60;99.90
3190;DHT22;1606;51.946;10.558;2024-02-21T02:23:28;10.70;99.90
3190;DHT22;1606;51.946;10.558;2024-02-21T02:25:57;10.60;99.90
3190;DHT22;1606;51.946;10.558;2024-02-21T02:28:25;10.70;99.90
3190;DHT22;1606;51.946;10.558;2024-02-21T02:30:53;10.80;99.90
3190;DHT22;1606;51.946;10.558;2024-02-21T02:33:21;10.70;99.90
3190;DHT22;1606;51.946;10.558;2024-02-21T02:35:49;10.80;99.90
3190;DHT22;1606;51.946;10.558;2024-02-21T02:38:17;10.90;99.90
3190;DHT22;1606;51.946;10.558;2024-02-21T02:40:46;10.90;99.90
3190;DHT22;1606;51.946;10.558;2024-02-21T02:43:15;11.00;99.90
3190;DHT22;1606;51.946;10.558;2024-02-21T02:45:43;10.80;99.90
3190;DHT22;1606;51.946;10.558;2024-02-21T02:48:11;10.80;99.90
3190;DHT22;1606;51.946;10.558;2024-02-21T02:50:39;10.80;99.90
3190;DHT22;1606;51.946;10.558;2024-02-21T02:53:07;10.90;99.90
3190;DHT22;1606;51.946;10.558;2024-02-21T02:55:35;11.00;99.90
3190;DHT22;1606;51.946;10.558;2024-02-21T02:58:04;10.70;99.90
3190;DHT22;1606;51.946;10.558;2024-02-21T03:00:32;10.60;99.90
3190;DHT22;1606;51.946;10.558;2024-02-21T03:03:03;10.70;99.90
3190;DHT22;1606;51.946;10.558;2024-02-21T03:05:32;10.70;99.90
3190;DHT22;1606;51.946;10.558;2024-02-21T03:08:00;10.80;99.90
3190;DHT22;1606;51.946;10.558;2024-02-21T03:10:27;11.00;99.90
3190;DHT22;1606;51.946;10.558;2024-02-21T03:12:55;11.10;99.90
3190;DHT22;1606;51.946;10.558;2024-02-21T03:15:25;11.30;99.90
3190;DHT22;1606;51.946;10.558;2024-02-21T03:17:53;11.20;99.90
3190;DHT22;1606;51.946;10.558;2024-02-21T03:20:20;11.30;99.90
3190;DHT22;1606;51.946;10.558;2024-02-21T03:22:48;11.30;99.90
3190;DHT22;1606;51.946;10.558;2024-02-21T03:25:16;11.30;99.90
3190;DHT22;1606;51.946;10.558;2024-02-21T03:27:44;11.30;99.90
3190;DHT22;1606;51.946;10.558;2024-02-21T03:30:12;11.30;99.90
3190;DHT22;1606;51.946;10.558;2024-02-21T03:32:41;11.30;99.90
3190;DHT22;1606;51.946;10.558;2024-02-21T03:35:09;11.50;99.90
3190;DHT22;1606;51.946;10.558;2024-02-21T03:37:37;11.40;99.90
3190;DHT22;1606;51.946;10.558;2024-02-21T03:40:08;11.50;99.90
3190;DHT22;1606;51.946;10.558;2024-02-21T03:42:37;11.50;99.90
3190;DHT22;1606;51.946;10.558;2024-02-21T03:45:05;11.70;99.90
3190;DHT22;1606;51.946;10.558;2024-02-21T03:47:34;11.50;99.90
3190;DHT22;1606;51.946;10.558;2024-02-21T03:50:04;11.40;99.90
3190;DHT22;1606;51.946;10.558;2024-02-21T03:52:32;11.40;99.90
3190;DHT22;1606;51.946;10.558;2024-02-21T03:55:00;11.50;99.90
3190;DHT22;1606;51.946;10.558;2024-02-21T03:57:28;11.70;99.90
3190;DHT22;1606;51.946;10.558;2024-02-21T03:59:56;11.50;99.90
3190;DHT22;1606;51.946;10.558;2024-02-21T04:02:24;11.40;99.90
3190;DHT22;1606;51.946;10.558;2024-02-21T04:04:51;11.40;99.90
3190;DHT22;1606;51.946;10.558;2024-02-21T04:07:21;11.50;99.90
3190;DHT22;1606;51.946;10.558;2024-02-21T04:09:49;11.60;99.90
3190;DHT22;1606;51.946;10.558;2024-02-21T04:12:17;11.60;99.90
3190;DHT22;1606;51.946;10.558;2024-02-21T04:14:44;11.60;99.90
3190;DHT22;1606;51.946;10.558;2024-02-21T04:17:13;11.60;99.90
3190;DHT22;1606;51.946;10.558;2024-02-21T04:19:43;11.60;99.90
3190;DHT22;1606;51.946;10.558;2024-02-21T04:22:11;11.30;99.90
3190;DHT22;1606;51.946;10.558;2024-02-21T04:24:40;11.30;99.90
3190;DHT22;1606;51.946;10.558;2024-02-21T04:27:08;11.10;99.90
3190;DHT22;1606;51.946;10.558;2024-02-21T04:29:36;11.10;99.90
3190;DHT22;1606;51.946;10.558;2024-02-21T04:32:04;11.30;99.90
3190;DHT22;1606;51.946;10.558;2024-02-21T04:34:32;11.20;99.90
3190;DHT22;1606;51.946;10.558;2024-02-21T04:37:00;11.10;99.90
3190;DHT22;1606;51.946;10.558;2024-02-21T04:39:28;11.10;99.90
3190;DHT22;1606;51.946;10.558;2024-02-21T04:41:57;11.20;99.90
3190;DHT22;1606;51.946;10.558;2024-02-21T04:44:25;11.20;99.90
3190;DHT22;1606;51.946;10.558;2024-02-21T04:46:53;10.90;99.90
3190;DHT22;1606;51.946;10.558;2024-02-21T04:49:21;11.10;99.90
3190;DHT22;1606;51.946;10.558;2024-02-21T04:51:49;11.10;99.90
3190;DHT22;1606;51.946;10.558;2024-02-21T04:54:17;11.30;99.90
3190;DHT22;1606;51.946;10.558;2024-02-21T04:56:45;11.30;99.90
3190;DHT22;1606;51.946;10.558;2024-02-21T04:59:17;11.20;99.90
3190;DHT22;1606;51.946;10.558;2024-02-21T05:01:45;11.10;99.90
3190;DHT22;1606;51.946;10.558;2024-02-21T05:04:13;11.10;99.90
3190;DHT22;1606;51.946;10.558;2024-02-21T05:06:41;11.10;99.90
3190;DHT22;1606;51.946;10.558;2024-02-21T05:09:10;11.20;99.90
3190;DHT22;1606;51.946;10.558;2024-02-21T05:11:38;10.90;99.90
3190;DHT22;1606;51.946;10.558;2024-02-21T05:14:06;10.90;99.90
3190;DHT22;1606;51.946;10.558;2024-02-21T05:16:35;10.70;99.90
3190;DHT22;1606;51.946;10.558;2024-02-21T05:19:03;10.60;99.90
3190;DHT22;1606;51.946;10.558;2024-02-21T05:21:31;10.60;99.90
3190;DHT22;1606;51.946;10.558;2024-02-21T05:23:59;10.70;99.90
3190;DHT22;1606;51.946;10.558;2024-02-21T05:26:28;10.80;99.90
3190;DHT22;1606;51.946;10.558;2024-02-21T05:28:56;10.90;99.90
3190;DHT22;1606;51.946;10.558;2024-02-21T05:31:26;10.70;99.90
3190;DHT22;1606;51.946;10.558;2024-02-21T05:33:55;10.70;99.90
3190;DHT22;1606;51.946;10.558;2024-02-21T05:36:25;10.70;99.90
3190;DHT22;1606;51.946;10.558;2024-02-21T05:38:55;10.70;99.90
3190;DHT22;1606;51.946;10.558;2024-02-21T05:41:24;10.50;99.90
3190;DHT22;1606;51.946;10.558;2024-02-21T05:43:52;10.50;99.90
3190;DHT22;1606;51.946;10.558;2024-02-21T05:46:19;10.50;99.90
3190;DHT22;1606;51.946;10.558;2024-02-21T05:48:47;10.60;99.90
3190;DHT22;1606;51.946;10.558;2024-02-21T05:51:16;10.50;99.90
3190;DHT22;1606;51.946;10.558;2024-02-21T05:53:44;10.70;99.90
3190;DHT22;1606;51.946;10.558;2024-02-21T05:56:13;10.70;99.90
3190;DHT22;1606;51.946;10.558;2024-02-21T05:58:41;10.50;99.90
3190;DHT22;1606;51.946;10.558;2024-02-21T06:01:08;10.70;99.90
3190;DHT22;1606;51.946;10.558;2024-02-21T06:03:36;10.80;99.90
3190;DHT22;1606;51.946;10.558;2024-02-21T06:06:05;10.60;99.90
3190;DHT22;1606;51.946;10.558;2024-02-21T06:08:34;10.80;99.90
3190;DHT22;1606;51.946;10.558;2024-02-21T06:11:02;11.10;99.90
3190;DHT22;1606;51.946;10.558;2024-02-21T06:13:30;11.10;99.90
3190;DHT22;1606;51.946;10.558;2024-02-21T06:15:58;11.00;99.90
3190;DHT22;1606;51.946;10.558;2024-02-21T06:18:26;10.80;99.90
3190;DHT22;1606;51.946;10.558;2024-02-21T06:20:53;10.70;99.90
3190;DHT22;1606;51.946;10.558;2024-02-21T06:23:21;10.90;99.90
3190;DHT22;1606;51.946;10.558;2024-02-21T06:25:50;10.90;99.90
3190;DHT22;1606;51.946;10.558;2024-02-21T06:28:18;11.00;99.90
3190;DHT22;1606;51.946;10.558;2024-02-21T06:30:47;11.00;99.90
3190;DHT22;1606;51.946;10.558;2024-02-21T06:33:15;10.90;99.90
3190;DHT22;1606;51.946;10.558;2024-02-21T06:35:43;11.10;99.90
3190;DHT22;1606;51.946;10.558;2024-02-21T06:38:14;10.80;99.90
3190;DHT22;1606;51.946;10.558;2024-02-21T06:40:44;10.90;99.90
3190;DHT22;1606;51.946;10.558;2024-02-21T06:43:18;10.70;99.90
3190;DHT22;1606;51.946;10.558;2024-02-21T06:45:46;10.70;99.90
3190;DHT22;1606;51.946;10.558;2024-02-21T06:48:18;10.90;99.90
3190;DHT22;1606;51.946;10.558;2024-02-21T06:50:46;10.90;99.90
3190;DHT22;1606;51.946;10.558;2024-02-21T06:53:14;11.00;99.90
3190;DHT22;1606;51.946;10.558;2024-02-21T06:55:42;11.00;99.90
3190;DHT22;1606;51.946;10.558;2024-02-21T06:58:10;10.90;99.90
3190;DHT22;1606;51.946;10.558;2024-02-21T07:00:42;10.80;99.90
3190;DHT22;1606;51.946;10.558;2024-02-21T07:03:09;10.90;99.90
3190;DHT22;1606;51.946;10.558;2024-02-21T07:05:37;10.90;99.90
3190;DHT22;1606;51.946;10.558;2024-02-21T07:08:06;10.80;99.90
3190;DHT22;1606;51.946;10.558;2024-02-21T07:10:34;10.70;99.90
3190;DHT22;1606;51.946;10.558;2024-02-21T07:13:02;10.60;99.90
3190;DHT22;1606;51.946;10.558;2024-02-21T07:15:30;10.90;99.90
3190;DHT22;1606;51.946;10.558;2024-02-21T07:17:59;11.00;99.90
3190;DHT22;1606;51.946;10.558;2024-02-21T07:20:27;11.20;99.90
3190;DHT22;1606;51.946;10.558;2024-02-21T07:22:56;11.30;99.90
3190;DHT22;1606;51.946;10.558;2024-02-21T07:25:23;11.10;99.90
3190;DHT22;1606;51.946;10.558;2024-02-21T07:27:51;10.90;99.90
3190;DHT22;1606;51.946;10.558;2024-02-21T07:30:19;11.00;99.90
3190;DHT22;1606;51.946;10.558;2024-02-21T07:32:49;11.10;99.90
3190;DHT22;1606;51.946;10.558;2024-02-21T07:35:18;11.00;99.90
3190;DHT22;1606;51.946;10.558;2024-02-21T07:37:46;11.00;99.90
3190;DHT22;1606;51.946;10.558;2024-02-21T07:40:15;11.10;99.90
3190;DHT22;1606;51.946;10.558;2024-02-21T07:42:44;11.00;99.90
3190;DHT22;1606;51.946;10.558;2024-02-21T07:45:17;11.10;99.90
3190;DHT22;1606;51.946;10.558;2024-02-21T07:47:45;11.30;99.90
3190;DHT22;1606;51.946;10.558;2024-02-21T07:50:13;11.40;99.90
3190;DHT22;1606;51.946;10.558;2024-02-21T07:52:42;11.30;99.90
3190;DHT22;1606;51.946;10.558;2024-02-21T07:55:10;11.30;99.90
3190;DHT22;1606;51.946;10.558;2024-02-21T07:57:38;11.30;99.90
3190;DHT22;1606;51.946;10.558;2024-02-21T08:00:07;11.20;99.90
3190;DHT22;1606;51.946;10.558;2024-02-21T08:02:36;11.30;99.90
3190;DHT22;1606;51.946;10.558;2024-02-21T08:05:05;11.30;99.90
3190;DHT22;1606;51.946;10.558;2024-02-21T08:07:33;11.30;99.90
3190;DHT22;1606;51.946;10.558;2024-02-21T08:10:03;11.40;99.90
3190;DHT22;1606;51.946;10.558;2024-02-21T08:12:30;11.40;99.90
3190;DHT22;1606;51.946;10.558;2024-02-21T08:14:59;11.50;99.90
3190;DHT22;1606;51.946;10.558;2024-02-21T08:17:27;11.60;99.90
3190;DHT22;1606;51.946;10.558;2024-02-21T08:19:55;11.60;99.90
3190;DHT22;1606;51.946;10.558;2024-02-21T08:22:24;11.40;99.90
3190;DHT22;1606;51.946;10.558;2024-02-21T08:24:53;11.40;99.90
3190;DHT22;1606;51.946;10.558;2024-02-21T08:27:24;11.60;99.90
3190;DHT22;1606;51.946;10.558;2024-02-21T08:29:52;11.70;99.90
3190;DHT22;1606;51.946;10.558;2024-02-21T08:32:20;11.80;99.90
3190;DHT22;1606;51.946;10.558;2024-02-21T08:34:48;11.70;99.90
3190;DHT22;1606;51.946;10.558;2024-02-21T08:37:16;11.60;99.90
3190;DHT22;1606;51.946;10.558;2024-02-21T08:39:47;11.70;99.90
3190;DHT22;1606;51.946;10.558;2024-02-21T08:42:16;11.90;99.90
3190;DHT22;1606;51.946;10.558;2024-02-21T08:44:45;11.70;99.90
3190;DHT22;1606;51.946;10.558;2024-02-21T08:47:13;11.50;99.90
3190;DHT22;1606;51.946;10.558;2024-02-21T08:49:42;11.40;99.90
3190;DHT22;1606;51.946;10.558;2024-02-21T08:52:10;11.50;99.90
3190;DHT22;1606;51.946;10.558;2024-02-21T08:54:38;11.70;99.90
3190;DHT22;1606;51.946;10.558;2024-02-21T08:57:06;11.80;99.90
3190;DHT22;1606;51.946;10.558;2024-02-21T08:59:34;11.60;99.90
3190;DHT22;1606;51.946;10.558;2024-02-21T09:02:04;11.60;99.90
3190;DHT22;1606;51.946;10.558;2024-02-21T09:04:34;11.70;99.90
3190;DHT22;1606;51.946;10.558;2024-02-21T09:07:02;11.80;99.90
3190;DHT22;1606;51.946;10.558;2024-02-21T09:09:30;11.80;99.90
3190;DHT22;1606;51.946;10.558;2024-02-21T09:11:59;12.20;99.90
3190;DHT22;1606;51.946;10.558;2024-02-21T09:14:32;12.20;99.90
3190;DHT22;1606;51.946;10.558;2024-02-21T09:17:00;12.20;99.90
3190;DHT22;1606;51.946;10.558;2024-02-21T09:19:30;12.20;99.90
3190;DHT22;1606;51.946;10.558;2024-02-21T09:21:58;12.10;99.90
3190;DHT22;1606;51.946;10.558;2024-02-21T09:24:26;12.10;99.90
3190;DHT22;1606;51.946;10.558;2024-02-21T09:26:54;11.90;99.90
3190;DHT22;1606;51.946;10.558;2024-02-21T09:29:22;12.00;99.90
3190;DHT22;1606;51.946;10.558;2024-02-21T09:31:53;11.80;99.90
3190;DHT22;1606;51.946;10.558;2024-02-21T09:34:21;11.90;99.90
3190;DHT22;1606;51.946;10.558;2024-02-21T09:36:51;11.90;99.90
3190;DHT22;1606;51.946;10.558;2024-02-21T09:39:19;11.70;99.90
3190;DHT22;1606;51.946;10.558;2024-02-21T09:41:49;11.90;99.90
3190;DHT22;1606;51.946;10.558;2024-02-21T09:44:20;12.00;99.90
3190;DHT22;1606;51.946;10.558;2024-02-21T09:46:54;12.10;99.90
3190;DHT22;1606;51.946;10.558;2024-02-21T09:49:29;12.00;99.90
3190;DHT22;1606;51.946;10.558;2024-02-21T09:52:03;11.80;99.90
3190;DHT22;1606;51.946;10.558;2024-02-21T09:54:32;11.50;99.90
3190;DHT22;1606;51.946;10.558;2024-02-21T09:57:01;11.50;99.90
3190;DHT22;1606;51.946;10.558;2024-02-21T09:59:31;11.50;99.90
3190;DHT22;1606;51.946;10.558;2024-02-21T10:01:59;11.70;99.90
3190;DHT22;1606;51.946;10.558;2024-02-21T10:04:29;12.00;99.90
3190;DHT22;1606;51.946;10.558;2024-02-21T10:06:57;11.90;99.90
3190;DHT22;1606;51.946;10.558;2024-02-21T10:09:27;12.10;99.90
3190;DHT22;1606;51.946;10.558;2024-02-21T10:12:08;12.50;99.90
3190;DHT22;1606;51.946;10.558;2024-02-21T10:14:36;12.60;99.90
3190;DHT22;1606;51.946;10.558;2024-02-21T10:17:04;12.40;99.90
3190;DHT22;1606;51.946;10.558;2024-02-21T10:19:36;12.40;99.90
3190;DHT22;1606;51.946;10.558;2024-02-21T10:22:07;12.40;99.90
3190;DHT22;1606;51.946;10.558;2024-02-21T10:24:37;12.50;99.90
3190;DHT22;1606;51.946;10.558;2024-02-21T10:27:09;12.60;99.90
3190;DHT22;1606;51.946;10.558;2024-02-21T10:29:39;12.60;99.90
3190;DHT22;1606;51.946;10.558;2024-02-21T10:32:09;12.60;99.90
3190;DHT22;1606;51.946;10.558;2024-02-21T10:34:39;12.60;99.90
3190;DHT22;1606;51.946;10.558;2024-02-21T10:37:08;12.90;99.90
3190;DHT22;1606;51.946;10.558;2024-02-21T10:39:38;13.10;99.90
3190;DHT22;1606;51.946;10.558;2024-02-21T10:42:06;13.10;99.90
3190;DHT22;1606;51.946;10.558;2024-02-21T10:44:37;13.00;99.90
3190;DHT22;1606;51.946;10.558;2024-02-21T10:47:09;13.20;99.90
3190;DHT22;1606;51.946;10.558;2024-02-21T10:49:39;12.90;99.90
3190;DHT22;1606;51.946;10.558;2024-02-21T10:52:13;12.70;99.90
3190;DHT22;1606;51.946;10.558;2024-02-21T10:54:48;12.90;99.90
3190;DHT22;1606;51.946;10.558;2024-02-21T10:57:17;12.80;99.90
3190;DHT22;1606;51.946;10.558;2024-02-21T10:59:48;12.70;99.90
3190;DHT22;1606;51.946;10.558;2024-02-21T11:02:16;12.70;99.90
3190;DHT22;1606;51.946;10.558;2024-02-21T11:04:44;12.80;99.90
3190;DHT22;1606;51.946;10.558;2024-02-21T11:07:13;12.80;99.90
3190;DHT22;1606;51.946;10.558;2024-02-21T11:09:52;12.90;99.90
3190;DHT22;1606;51.946;10.558;2024-02-21T11:12:22;13.00;99.90
3190;DHT22;1606;51.946;10.558;2024-02-21T11:14:51;13.20;99.90
3190;DHT22;1606;51.946;10.558;2024-02-21T11:17:19;13.10;99.90
3190;DHT22;1606;51.946;10.558;2024-02-21T11:19:48;13.30;99.90
3190;DHT22;1606;51.946;10.558;2024-02-21T11:22:17;13.60;99.90
3190;DHT22;1606;51.946;10.558;2024-02-21T11:24:46;13.60;99.90
3190;DHT22;1606;51.946;10.558;2024-02-21T11:27:18;13.80;99.90
3190;DHT22;1606;51.946;10.558;2024-02-21T11:29:48;13.70;99.90
3190;DHT22;1606;51.946;10.558;2024-02-21T11:32:19;13.60;99.90
3190;DHT22;1606;51.946;10.558;2024-02-21T11:34:55;13.70;99.90
3190;DHT22;1606;51.946;10.558;2024-02-21T11:37:25;13.80;99.90
3190;DHT22;1606;51.946;10.558;2024-02-21T11:39:54;13.90;99.90
3190;DHT22;1606;51.946;10.558;2024-02-21T11:42:25;13.80;99.90
3190;DHT22;1606;51.946;10.558;2024-02-21T11:44:53;13.70;99.90
3190;DHT22;1606;51.946;10.558;2024-02-21T11:47:23;13.70;99.90
3190;DHT22;1606;51.946;10.558;2024-02-21T11:49:51;13.70;99.90
3190;DHT22;1606;51.946;10.558;2024-02-21T11:52:22;13.70;99.90
3190;DHT22;1606;51.946;10.558;2024-02-21T11:54:53;13.70;99.90
3190;DHT22;1606;51.946;10.558;2024-02-21T11:57:23;13.80;99.90
3190;DHT22;1606;51.946;10.558;2024-02-21T11:59:51;13.90;99.90
3190;DHT22;1606;51.946;10.558;2024-02-21T12:02:26;14.10;99.90
3190;DHT22;1606;51.946;10.558;2024-02-21T12:04:55;14.00;99.90
3190;DHT22;1606;51.946;10.558;2024-02-21T12:07:23;13.90;99.90
3190;DHT22;1606;51.946;10.558;2024-02-21T12:09:52;13.90;99.90
3190;DHT22;1606;51.946;10.558;2024-02-21T12:12:20;13.90;99.90
3190;DHT22;1606;51.946;10.558;2024-02-21T12:14:55;13.90;99.90
3190;DHT22;1606;51.946;10.558;2024-02-21T12:17:23;14.00;99.90
3190;DHT22;1606;51.946;10.558;2024-02-21T12:19:51;14.10;99.90
3190;DHT22;1606;51.946;10.558;2024-02-21T12:22:19;14.00;99.90
3190;DHT22;1606;51.946;10.558;2024-02-21T12:24:47;13.90;99.90
3190;DHT22;1606;51.946;10.558;2024-02-21T12:27:17;13.90;99.90
3190;DHT22;1606;51.946;10.558;2024-02-21T12:29:44;13.70;99.90
3190;DHT22;1606;51.946;10.558;2024-02-21T12:32:13;13.80;99.90
3190;DHT22;1606;51.946;10.558;2024-02-21T12:34:41;13.80;99.90
3190;DHT22;1606;51.946;10.558;2024-02-21T12:37:21;13.90;99.90
3190;DHT22;1606;51.946;10.558;2024-02-21T12:39:49;13.80;99.90
3190;DHT22;1606;51.946;10.558;2024-02-21T12:42:17;13.90;99.90
3190;DHT22;1606;51.946;10.558;2024-02-21T12:44:45;13.80;99.90
3190;DHT22;1606;51.946;10.558;2024-02-21T12:47:14;14.00;99.90
3190;DHT22;1606;51.946;10.558;2024-02-21T12:49:42;13.90;99.90
3190;DHT22;1606;51.946;10.558;2024-02-21T12:52:12;13.80;99.90
3190;DHT22;1606;51.946;10.558;2024-02-21T12:54:40;13.80;99.90
3190;DHT22;1606;51.946;10.558;2024-02-21T12:57:09;13.80;99.90
3190;DHT22;1606;51.946;10.558;2024-02-21T12:59:36;13.80;99.90
3190;DHT22;1606;51.946;10.558;2024-02-21T13:02:05;13.80;99.90
3190;DHT22;1606;51.946;10.558;2024-02-21T13:04:34;13.80;99.90
3190;DHT22;1606;51.946;10.558;2024-02-21T13:07:02;13.90;99.90
3190;DHT22;1606;51.946;10.558;2024-02-21T13:09:30;14.10;99.90
3190;DHT22;1606;51.946;10.558;2024-02-21T13:11:58;14.20;99.90
3190;DHT22;1606;51.946;10.558;2024-02-21T13:14:25;14.20;99.90
3190;DHT22;1606;51.946;10.558;2024-02-21T13:16:53;14.30;99.90
3190;DHT22;1606;51.946;10.558;2024-02-21T13:19:21;14.10;99.90
3190;DHT22;1606;51.946;10.558;2024-02-21T13:21:52;14.10;99.90
3190;DHT22;1606;51.946;10.558;2024-02-21T13:24:20;14.20;99.90
3190;DHT22;1606;51.946;10.558;2024-02-21T13:26:49;14.20;99.90
3190;DHT22;1606;51.946;10.558;2024-02-21T13:29:18;14.20;99.90
3190;DHT22;1606;51.946;10.558;2024-02-21T13:31:47;14.40;99.90
3190;DHT22;1606;51.946;10.558;2024-02-21T13:34:16;14.40;99.90
3190;DHT22;1606;51.946;10.558;2024-02-21T13:36:45;14.40;99.90
3190;DHT22;1606;51.946;10.558;2024-02-21T13:39:14;14.50;99.90
3190;DHT22;1606;51.946;10.558;2024-02-21T13:41:43;14.40;99.90
3190;DHT22;1606;51.946;10.558;2024-02-21T13:44:11;14.30;99.90
3190;DHT22;1606;51.946;10.558;2024-02-21T13:46:39;14.30;99.90
3190;DHT22;1606;51.946;10.558;2024-02-21T13:49:07;14.30;99.90
3190;DHT22;1606;51.946;10.558;2024-02-21T13:51:35;14.20;99.90
3190;DHT22;1606;51.946;10.558;2024-02-21T13:54:03;14.40;99.90
3190;DHT22;1606;51.946;10.558;2024-02-21T13:56:33;14.60;99.90
3190;DHT22;1606;51.946;10.558;2024-02-21T13:59:01;14.50;99.90
3190;DHT22;1606;51.946;10.558;2024-02-21T14:01:29;14.60;99.90
3190;DHT22;1606;51.946;10.558;2024-02-21T14:03:58;14.60;99.90
3190;DHT22;1606;51.946;10.558;2024-02-21T14:06:27;14.60;99.90
3190;DHT22;1606;51.946;10.558;2024-02-21T14:08:55;14.60;99.90
3190;DHT22;1606;51.946;10.558;2024-02-21T14:11:22;14.70;99.90
3190;DHT22;1606;51.946;10.558;2024-02-21T14:13:52;14.70;99.90
3190;DHT22;1606;51.946;10.558;2024-02-21T14:16:24;14.70;99.90
3190;DHT22;1606;51.946;10.558;2024-02-21T14:18:52;14.60;99.90
3190;DHT22;1606;51.946;10.558;2024-02-21T14:21:20;14.60;99.90
3190;DHT22;1606;51.946;10.558;2024-02-21T14:23:48;14.60;99.90
3190;DHT22;1606;51.946;10.558;2024-02-21T14:26:16;14.50;99.90
3190;DHT22;1606;51.946;10.558;2024-02-21T14:28:44;14.20;99.90
3190;DHT22;1606;51.946;10.558;2024-02-21T14:31:14;14.10;99.90
3190;DHT22;1606;51.946;10.558;2024-02-21T14:33:42;14.00;99.90
3190;DHT22;1606;51.946;10.558;2024-02-21T14:36:10;13.90;99.90
3190;DHT22;1606;51.946;10.558;2024-02-21T14:38:38;13.90;99.90
3190;DHT22;1606;51.946;10.558;2024-02-21T14:41:06;13.90;99.90
3190;DHT22;1606;51.946;10.558;2024-02-21T14:43:34;13.80;99.90
3190;DHT22;1606;51.946;10.558;2024-02-21T14:46:03;13.70;99.90
3190;DHT22;1606;51.946;10.558;2024-02-21T14:48:33;13.50;99.90
3190;DHT22;1606;51.946;10.558;2024-02-21T14:51:01;13.30;99.90
3190;DHT22;1606;51.946;10.558;2024-02-21T14:53:29;13.10;99.90
3190;DHT22;1606;51.946;10.558;2024-02-21T14:55:57;12.90;99.90
3190;DHT22;1606;51.946;10.558;2024-02-21T14:58:25;13.00;99.90
3190;DHT22;1606;51.946;10.558;2024-02-21T15:00:54;13.10;99.90
3190;DHT22;1606;51.946;10.558;2024-02-21T15:03:22;13.30;99.90
3190;DHT22;1606;51.946;10.558;2024-02-21T15:05:51;13.40;99.90
3190;DHT22;1606;51.946;10.558;2024-02-21T15:08:19;13.50;99.90
3190;DHT22;1606;51.946;10.558;2024-02-21T15:10:47;13.60;99.90
3190;DHT22;1606;51.946;10.558;2024-02-21T15:13:17;13.80;99.90
3190;DHT22;1606;51.946;10.558;2024-02-21T15:15:45;13.90;99.90
3190;DHT22;1606;51.946;10.558;2024-02-21T15:18:14;14.00;99.90
3190;DHT22;1606;51.946;10.558;2024-02-21T15:20:42;14.00;99.90
3190;DHT22;1606;51.946;10.558;2024-02-21T15:23:12;14.00;99.90
3190;DHT22;1606;51.946;10.558;2024-02-21T15:25:40;14.00;99.90
3190;DHT22;1606;51.946;10.558;2024-02-21T15:28:08;13.90;99.90
3190;DHT22;1606;51.946;10.558;2024-02-21T15:30:37;14.00;99.90
3190;DHT22;1606;51.946;10.558;2024-02-21T15:33:04;14.10;99.90
3190;DHT22;1606;51.946;10.558;2024-02-21T15:35:33;14.10;99.90
3190;DHT22;1606;51.946;10.558;2024-02-21T15:38:01;14.00;99.90
3190;DHT22;1606;51.946;10.558;2024-02-21T15:40:31;14.10;99.90
3190;DHT22;1606;51.946;10.558;2024-02-21T15:43:02;14.10;99.90
3190;DHT22;1606;51.946;10.558;2024-02-21T15:45:30;14.10;99.90
3190;DHT22;1606;51.946;10.558;2024-02-21T15:47:58;14.10;99.90
3190;DHT22;1606;51.946;10.558;2024-02-21T15:50:26;14.10;99.90
3190;DHT22;1606;51.946;10.558;2024-02-21T15:52:55;14.00;99.90
3190;DHT22;1606;51.946;10.558;2024-02-21T15:55:22;14.00;99.90